Time,TemperatureF,DewpointF,PressureIn,WindDirection,WindDirectionDegrees,WindSpeedMPH,WindSpeedGustMPH,Humidity,HourlyPrecipIn,Conditions,Clouds,dailyrainin,SolarRadiationWatts/m^2,SoftwareType,DateUTC
2013-06-18 00:02:00,62.0,59.0,29.92,ENE,65,0.0,0.0,89,0.00,,,0.00,0.000000,,2013-06-18 04:02:00,
2013-06-18 00:12:00,62.0,59.0,29.92,ENE,65,0.0,0.0,89,0.00,,,0.00,0.000000,,2013-06-18 04:12:00,
2013-06-18 00:23:00,62.0,59.0,29.92,ENE,64,0.0,0.0,90,0.00,,,0.00,0.000000,,2013-06-18 04:23:00,
2013-06-18 00:34:00,62.0,59.0,29.92,ENE,64,0.0,0.0,91,0.00,,,0.00,0.000000,,2013-06-18 04:34:00,
2013-06-18 00:43:00,62.0,59.0,29.93,ENE,64,0.0,0.0,91,0.00,,,0.00,0.000000,,2013-06-18 04:43:00,
2013-06-18 00:54:00,62.0,59.0,29.92,ENE,64,0.0,0.0,90,0.00,,,0.00,0.000000,,2013-06-18 04:54:00,
2013-06-18 01:03:00,61.0,58.0,29.91,ENE,68,0.0,1.0,89,0.00,,,0.00,0.000000,,2013-06-18 05:03:00,
2013-06-18 01:12:00,61.0,58.0,29.91,ENE,63,0.0,0.0,89,0.00,,,0.00,0.000000,,2013-06-18 05:12:00,
2013-06-18 01:22:00,61.0,58.0,29.92,ENE,63,0.0,0.0,89,0.00,,,0.00,0.000000,,2013-06-18 05:22:00,
2013-06-18 01:34:00,61.0,58.0,29.92,ENE,63,0.0,0.0,89,0.00,,,0.00,0.000000,,2013-06-18 05:34:00,
2013-06-18 01:43:00,61.0,58.0,29.92,ENE,57,0.0,0.0,89,0.00,,,0.00,0.000000,,2013-06-18 05:43:00,
2013-06-18 01:53:00,61.0,58.0,29.91,ENE,57,0.0,0.0,89,0.00,,,0.00,0.000000,,2013-06-18 05:53:00,
2013-06-18 02:02:00,61.0,58.0,29.91,ENE,57,0.0,0.0,90,0.00,,,0.00,0.000000,,2013-06-18 06:02:00,
2013-06-18 02:12:00,61.0,58.0,29.91,WNW,300,0.0,3.0,90,0.00,,,0.00,0.000000,,2013-06-18 06:12:00,
2013-06-18 02:23:00,61.0,58.0,29.91,WNW,301,0.0,0.0,90,0.00,,,0.00,0.000000,,2013-06-18 06:23:00,
2013-06-18 02:32:00,61.0,58.0,29.90,WNW,301,0.0,0.0,91,0.00,,,0.00,0.000000,,2013-06-18 06:32:00,
2013-06-18 02:43:00,61.0,58.0,29.90,WNW,301,0.0,0.0,91,0.00,,,0.00,0.000000,,2013-06-18 06:43:00,
2013-06-18 02:53:00,61.0,58.0,29.90,WNW,301,0.0,0.0,91,0.00,,,0.00,0.000000,,2013-06-18 06:53:00,
2013-06-18 03:02:00,60.0,57.0,29.89,ENE,63,0.0,2.0,91,0.00,,,0.00,0.000000,,2013-06-18 07:02:00,
2013-06-18 03:12:00,60.0,58.0,29.89,ENE,61,2.0,5.0,92,0.00,,,0.00,0.000000,,2013-06-18 07:12:00,
2013-06-18 03:22:00,60.0,58.0,29.88,NE,44,1.0,3.0,92,0.00,,,0.00,0.000000,,2013-06-18 07:22:00,
2013-06-18 03:33:00,60.0,58.0,29.89,East,80,1.0,4.0,93,0.00,,,0.00,0.000000,,2013-06-18 07:33:00,
2013-06-18 03:43:00,59.0,57.0,29.90,NE,56,0.0,4.0,93,0.00,,,0.00,0.000000,,2013-06-18 07:43:00,
2013-06-18 03:53:00,59.0,57.0,29.90,ENE,76,0.0,0.0,93,0.00,,,0.00,0.000000,,2013-06-18 07:53:00,
2013-06-18 04:02:00,59.0,57.0,29.90,ENE,76,0.0,0.0,93,0.00,,,0.00,0.000000,,2013-06-18 08:02:00,
2013-06-18 04:11:00,59.0,57.0,29.89,NE,45,0.0,4.0,93,0.00,,,0.00,0.000000,,2013-06-18 08:11:00,
2013-06-18 04:23:00,59.0,57.0,29.89,ENE,62,0.0,6.0,93,0.00,,,0.00,0.000000,,2013-06-18 08:23:00,
2013-06-18 04:33:00,59.0,57.0,29.89,ENE,58,0.0,5.0,93,0.00,,,0.00,0.000000,,2013-06-18 08:33:00,
2013-06-18 04:43:00,58.0,56.0,29.89,ENE,57,0.0,1.0,93,0.00,,,0.00,0.000000,,2013-06-18 08:43:00,
2013-06-18 04:52:00,58.0,56.0,29.90,NE,55,0.0,1.0,93,0.00,,,0.00,0.000000,,2013-06-18 08:52:00,
2013-06-18 05:02:00,58.0,56.0,29.89,NE,54,2.0,3.0,93,0.00,,,0.00,0.000000,,2013-06-18 09:02:00,
2013-06-18 05:12:00,57.0,55.0,29.89,NE,50,0.0,2.0,92,0.00,,,0.00,0.000000,,2013-06-18 09:12:00,
2013-06-18 05:22:00,57.0,55.0,29.91,NE,53,0.0,5.0,92,0.00,,,0.00,0.000000,,2013-06-18 09:22:00,
2013-06-18 05:34:00,57.0,55.0,29.91,ENE,68,0.0,1.0,92,0.00,,,0.00,0.000000,,2013-06-18 09:34:00,
2013-06-18 05:43:00,57.0,54.0,29.92,ENE,65,0.0,0.0,91,0.00,,,0.00,0.000000,,2013-06-18 09:43:00,
2013-06-18 05:53:00,57.0,54.0,29.92,ENE,65,0.0,0.0,91,0.00,,,0.00,0.000000,,2013-06-18 09:53:00,
2013-06-18 06:02:00,56.0,53.0,29.93,ENE,65,0.0,0.0,90,0.00,,,0.00,5.000000,,2013-06-18 10:02:00,
2013-06-18 06:11:00,56.0,53.0,29.94,ENE,65,0.0,0.0,91,0.00,,,0.00,14.000000,,2013-06-18 10:11:00,
2013-06-18 06:22:00,56.0,53.0,29.94,ENE,65,0.0,0.0,91,0.00,,,0.00,25.000000,,2013-06-18 10:22:00,
2013-06-18 06:33:00,56.0,54.0,29.94,ENE,65,0.0,0.0,92,0.00,,,0.00,37.000000,,2013-06-18 10:33:00,
2013-06-18 06:43:00,56.0,54.0,29.95,ENE,64,0.0,0.0,92,0.00,,,0.00,58.000000,,2013-06-18 10:43:00,
2013-06-18 06:53:00,57.0,55.0,29.95,ENE,57,0.0,0.0,92,0.00,,,0.00,67.000000,,2013-06-18 10:53:00,
2013-06-18 07:02:00,57.0,55.0,29.95,ENE,57,0.0,0.0,92,0.00,,,0.00,67.000000,,2013-06-18 11:02:00,
2013-06-18 07:11:00,57.0,54.0,29.95,NE,46,1.0,6.0,91,0.00,,,0.00,67.000000,,2013-06-18 11:11:00,
2013-06-18 07:22:00,57.0,54.0,29.96,NE,55,0.0,5.0,91,0.00,,,0.00,65.000000,,2013-06-18 11:22:00,
2013-06-18 07:32:00,57.0,54.0,29.96,ENE,63,1.0,6.0,91,0.00,,,0.00,47.000000,,2013-06-18 11:32:00,
2013-06-18 07:43:00,57.0,54.0,29.96,ENE,67,0.0,4.0,90,0.00,,,0.00,60.000000,,2013-06-18 11:43:00,
2013-06-18 07:52:00,57.0,54.0,29.96,NE,43,2.0,5.0,90,0.00,,,0.00,65.000000,,2013-06-18 11:52:00,
2013-06-18 08:01:00,57.0,54.0,29.97,NNE,26,0.0,10.0,89,0.00,,,0.00,49.000000,,2013-06-18 12:01:00,
2013-06-18 08:11:00,56.0,53.0,29.97,ENE,69,1.0,9.0,89,0.00,,,0.00,47.000000,,2013-06-18 12:11:00,
2013-06-18 08:22:00,56.0,52.0,29.98,ENE,58,2.0,6.0,88,0.00,,,0.00,83.000000,,2013-06-18 12:22:00,
2013-06-18 08:33:00,56.0,52.0,29.98,NE,42,0.0,8.0,88,0.00,,,0.00,114.000000,,2013-06-18 12:33:00,
2013-06-18 08:43:00,56.0,52.0,29.98,East,96,0.0,7.0,88,0.00,,,0.00,232.000000,,2013-06-18 12:43:00,
2013-06-18 08:52:00,57.0,53.0,29.97,ENE,64,2.0,10.0,88,0.00,,,0.00,392.000000,,2013-06-18 12:52:00,
2013-06-18 09:02:00,57.0,53.0,29.97,ENE,64,2.0,10.0,88,0.00,,,0.00,392.000000,,2013-06-18 13:02:00,
2013-06-18 09:12:00,57.0,53.0,29.98,ENE,67,0.0,6.0,86,0.00,,,0.00,176.000000,,2013-06-18 13:12:00,
2013-06-18 09:22:00,58.0,54.0,29.98,ENE,64,0.0,6.0,86,0.00,,,0.00,348.000000,,2013-06-18 13:22:00,
2013-06-18 09:33:00,59.0,54.0,29.98,NE,50,0.0,7.0,84,0.00,,,0.00,281.000000,,2013-06-18 13:33:00,
2013-06-18 09:43:00,59.0,54.0,29.98,NE,49,0.0,6.0,84,0.00,,,0.00,362.000000,,2013-06-18 13:43:00,
2013-06-18 09:52:00,59.0,54.0,29.98,ENE,64,2.0,8.0,83,0.00,,,0.00,376.000000,,2013-06-18 13:52:00,
2013-06-18 10:02:00,59.0,54.0,29.98,NE,39,1.0,10.0,82,0.00,,,0.00,232.000000,,2013-06-18 14:02:00,
2013-06-18 10:11:00,60.0,55.0,29.99,East,85,1.0,10.0,83,0.00,,,0.00,443.000000,,2013-06-18 14:11:00,
2013-06-18 10:22:00,60.0,55.0,29.99,NE,56,0.0,7.0,83,0.00,,,0.00,323.000000,,2013-06-18 14:22:00,
2013-06-18 10:33:00,60.0,54.0,29.98,NE,51,2.0,6.0,81,0.00,,,0.00,306.000000,,2013-06-18 14:33:00,
2013-06-18 10:43:00,61.0,55.0,29.99,ENE,59,1.0,4.0,81,0.00,,,0.00,336.000000,,2013-06-18 14:43:00,
2013-06-18 10:53:00,61.0,56.0,29.98,ENE,64,1.0,5.0,83,0.00,,,0.00,508.000000,,2013-06-18 14:53:00,
2013-06-18 11:02:00,62.0,56.0,29.98,ENE,58,2.0,6.0,81,0.00,,,0.00,485.000000,,2013-06-18 15:02:00,
2013-06-18 11:11:00,62.0,56.0,29.98,NE,55,0.0,5.0,81,0.00,,,0.00,555.000000,,2013-06-18 15:11:00,
2013-06-18 11:22:00,64.0,58.0,29.98,NNE,30,1.0,3.0,80,0.00,,,0.00,1058.000000,,2013-06-18 15:22:00,
2013-06-18 11:33:00,64.0,58.0,29.98,NNE,19,0.0,3.0,80,0.00,,,0.00,548.000000,,2013-06-18 15:33:00,
2013-06-18 11:43:00,63.0,56.0,29.99,NE,42,3.0,9.0,77,0.00,,,0.00,599.000000,,2013-06-18 15:43:00,
2013-06-18 11:53:00,63.0,56.0,29.99,ENE,66,3.0,7.0,77,0.00,,,0.00,816.000000,,2013-06-18 15:53:00,
2013-06-18 12:01:00,64.0,56.0,29.99,ENE,76,2.0,8.0,76,0.00,,,0.00,696.000000,,2013-06-18 16:01:00,
2013-06-18 12:11:00,64.0,56.0,29.99,NNE,32,1.0,6.0,75,0.00,,,0.00,962.000000,,2013-06-18 16:11:00,
2013-06-18 12:23:00,64.0,56.0,29.99,NE,55,1.0,10.0,76,0.00,,,0.00,1021.000000,,2013-06-18 16:23:00,
2013-06-18 12:33:00,65.0,56.0,29.99,ENE,61,0.0,11.0,74,0.00,,,0.00,977.000000,,2013-06-18 16:33:00,
2013-06-18 12:43:00,65.0,56.0,29.99,NNE,24,1.0,6.0,73,0.00,,,0.00,601.000000,,2013-06-18 16:43:00,
2013-06-18 12:53:00,65.0,55.0,29.99,NE,51,1.0,10.0,70,0.00,,,0.00,679.000000,,2013-06-18 16:53:00,
2013-06-18 13:02:00,65.0,56.0,29.99,NE,37,0.0,6.0,73,0.00,,,0.00,1118.000000,,2013-06-18 17:02:00,
2013-06-18 13:12:00,66.0,57.0,29.98,NE,49,5.0,9.0,72,0.00,,,0.00,1065.000000,,2013-06-18 17:12:00,
2013-06-18 13:22:00,66.0,55.0,29.99,ENE,62,3.0,10.0,68,0.00,,,0.00,1021.000000,,2013-06-18 17:22:00,
2013-06-18 13:33:00,66.0,55.0,29.99,NE,46,2.0,7.0,67,0.00,,,0.00,1023.000000,,2013-06-18 17:33:00,
2013-06-18 13:43:00,66.0,55.0,29.99,NE,43,2.0,7.0,67,0.00,,,0.00,1021.000000,,2013-06-18 17:43:00,
2013-06-18 13:53:00,66.0,53.0,29.99,East,80,2.0,12.0,64,0.00,,,0.00,1025.000000,,2013-06-18 17:53:00,
2013-06-18 14:02:00,66.0,52.0,30.00,NE,42,3.0,10.0,60,0.00,,,0.00,1023.000000,,2013-06-18 18:02:00,
2013-06-18 14:12:00,66.0,53.0,29.99,ENE,58,2.0,10.0,63,0.00,,,0.00,1009.000000,,2013-06-18 18:12:00,
2013-06-18 14:22:00,66.0,53.0,30.00,ENE,69,1.0,11.0,63,0.00,,,0.00,1013.000000,,2013-06-18 18:22:00,
2013-06-18 14:33:00,66.0,53.0,29.99,NE,44,0.0,10.0,64,0.00,,,0.00,1000.000000,,2013-06-18 18:33:00,
2013-06-18 14:42:00,67.0,54.0,29.99,ENE,65,3.0,7.0,63,0.00,,,0.00,986.000000,,2013-06-18 18:42:00,
2013-06-18 14:53:00,66.0,51.0,29.99,NNE,26,2.0,12.0,59,0.00,,,0.00,983.000000,,2013-06-18 18:53:00,
2013-06-18 15:02:00,67.0,54.0,29.98,NE,55,1.0,12.0,63,0.00,,,0.00,977.000000,,2013-06-18 19:02:00,
2013-06-18 15:12:00,67.0,54.0,29.98,NE,55,1.0,12.0,63,0.00,,,0.00,977.000000,,2013-06-18 19:12:00,
2013-06-18 15:22:00,67.0,54.0,29.98,NE,55,1.0,12.0,63,0.00,,,0.00,977.000000,,2013-06-18 19:22:00,
2013-06-18 15:33:00,68.0,53.0,29.98,NE,51,1.0,10.0,59,0.00,,,0.00,939.000000,,2013-06-18 19:33:00,
2013-06-18 15:43:00,68.0,54.0,29.98,NE,55,3.0,5.0,62,0.00,,,0.00,947.000000,,2013-06-18 19:43:00,
2013-06-18 15:53:00,68.0,52.0,29.98,ENE,78,2.0,7.0,57,0.00,,,0.00,907.000000,,2013-06-18 19:53:00,
2013-06-18 16:02:00,68.0,54.0,29.98,ENE,67,2.0,11.0,61,0.00,,,0.00,896.000000,,2013-06-18 20:02:00,
2013-06-18 16:12:00,68.0,54.0,29.98,NE,40,0.0,9.0,60,0.00,,,0.00,872.000000,,2013-06-18 20:12:00,
2013-06-18 16:23:00,69.0,53.0,29.98,NE,51,1.0,13.0,57,0.00,,,0.00,844.000000,,2013-06-18 20:23:00,
2013-06-18 16:33:00,69.0,53.0,29.98,NE,45,0.0,6.0,56,0.00,,,0.00,888.000000,,2013-06-18 20:33:00,
2013-06-18 16:43:00,69.0,53.0,29.98,ENE,57,1.0,12.0,57,0.00,,,0.00,791.000000,,2013-06-18 20:43:00,
2013-06-18 16:52:00,69.0,53.0,29.98,NE,55,0.0,9.0,57,0.00,,,0.00,759.000000,,2013-06-18 20:52:00,
2013-06-18 17:02:00,69.0,52.0,29.97,ENE,62,2.0,7.0,55,0.00,,,0.00,737.000000,,2013-06-18 21:02:00,
2013-06-18 17:12:00,69.0,54.0,29.97,NE,43,0.0,10.0,59,0.00,,,0.00,708.000000,,2013-06-18 21:12:00,
2013-06-18 17:23:00,69.0,53.0,29.97,ENE,61,0.0,10.0,57,0.00,,,0.00,679.000000,,2013-06-18 21:23:00,
2013-06-18 17:33:00,69.0,52.0,29.97,ENE,70,0.0,9.0,54,0.00,,,0.00,649.000000,,2013-06-18 21:33:00,
2013-06-18 17:43:00,69.0,52.0,29.96,NE,46,4.0,14.0,54,0.00,,,0.00,617.000000,,2013-06-18 21:43:00,
2013-06-18 17:52:00,69.0,54.0,29.96,NNE,30,0.0,6.0,58,0.00,,,0.00,584.000000,,2013-06-18 21:52:00,
2013-06-18 18:02:00,69.0,52.0,29.96,NE,51,0.0,4.0,55,0.00,,,0.00,554.000000,,2013-06-18 22:02:00,
2013-06-18 18:11:00,69.0,53.0,29.96,NE,53,1.0,6.0,56,0.00,,,0.00,522.000000,,2013-06-18 22:11:00,
2013-06-18 18:22:00,69.0,53.0,29.96,ENE,64,3.0,5.0,56,0.00,,,0.00,487.000000,,2013-06-18 22:22:00,
2013-06-18 18:34:00,69.0,53.0,29.96,NNE,15,2.0,6.0,56,0.00,,,0.00,454.000000,,2013-06-18 22:34:00,
2013-06-18 18:43:00,69.0,53.0,29.96,NE,49,0.0,7.0,57,0.00,,,0.00,420.000000,,2013-06-18 22:43:00,
2013-06-18 18:53:00,69.0,54.0,29.97,NE,54,0.0,3.0,58,0.00,,,0.00,385.000000,,2013-06-18 22:53:00,
2013-06-18 19:02:00,69.0,54.0,29.97,NE,37,0.0,3.0,58,0.00,,,0.00,350.000000,,2013-06-18 23:02:00,
2013-06-18 19:12:00,69.0,54.0,29.97,NNE,30,0.0,3.0,58,0.00,,,0.00,316.000000,,2013-06-18 23:12:00,
2013-06-18 19:23:00,68.0,52.0,29.97,NE,54,1.0,6.0,57,0.00,,,0.00,283.000000,,2013-06-18 23:23:00,
2013-06-18 19:38:00,68.0,54.0,29.97,NE,36,0.0,6.0,60,0.00,,,0.00,248.000000,,2013-06-18 23:38:00,
2013-06-18 19:47:00,68.0,53.0,29.97,NE,53,0.0,0.0,59,0.00,,,0.00,211.000000,,2013-06-18 23:47:00,
2013-06-18 20:02:00,67.0,52.0,29.98,ENE,59,0.0,1.0,58,0.00,,,0.00,139.000000,,2013-06-19 00:02:00,
2013-06-18 20:12:00,67.0,53.0,29.98,ENE,61,0.0,0.0,61,0.00,,,0.00,102.000000,,2013-06-19 00:12:00,
2013-06-18 20:22:00,67.0,55.0,29.98,ENE,61,0.0,0.0,65,0.00,,,0.00,76.000000,,2013-06-19 00:22:00,
2013-06-18 20:53:00,63.0,54.0,29.99,ENE,61,0.0,0.0,73,0.00,,,0.00,19.000000,,2013-06-19 00:53:00,
2013-06-18 21:02:00,62.0,55.0,29.99,ENE,61,0.0,0.0,77,0.00,,,0.00,14.000000,,2013-06-19 01:02:00,
2013-06-18 21:11:00,60.0,54.0,29.99,East,94,0.0,0.0,80,0.00,,,0.00,7.000000,,2013-06-19 01:11:00,
2013-06-18 21:22:00,60.0,54.0,29.99,East,94,0.0,0.0,80,0.00,,,0.00,7.000000,,2013-06-19 01:22:00,
2013-06-18 21:32:00,58.0,53.0,29.99,East,89,0.0,0.0,84,0.00,,,0.00,0.000000,,2013-06-19 01:32:00,
2013-06-18 21:43:00,58.0,53.0,29.99,East,89,0.0,0.0,84,0.00,,,0.00,0.000000,,2013-06-19 01:43:00,
2013-06-18 21:53:00,58.0,53.0,29.99,East,89,0.0,0.0,84,0.00,,,0.00,0.000000,,2013-06-19 01:53:00,
2013-06-18 22:01:00,58.0,54.0,29.99,East,89,0.0,0.0,85,0.00,,,0.00,0.000000,,2013-06-19 02:01:00,
2013-06-18 22:11:00,58.0,54.0,29.99,East,89,0.0,0.0,85,0.00,,,0.00,0.000000,,2013-06-19 02:11:00,
2013-06-18 22:21:00,57.0,53.0,30.00,East,89,0.0,0.0,87,0.00,,,0.00,0.000000,,2013-06-19 02:21:00,
2013-06-18 22:32:00,55.0,52.0,30.01,East,89,0.0,0.0,89,0.00,,,0.00,0.000000,,2013-06-19 02:32:00,
2013-06-18 22:42:00,55.0,52.0,30.02,East,89,0.0,0.0,90,0.00,,,0.00,0.000000,,2013-06-19 02:42:00,
2013-06-18 22:52:00,55.0,52.0,30.02,East,89,0.0,0.0,90,0.00,,,0.00,0.000000,,2013-06-19 02:52:00,
2013-06-18 23:01:00,54.0,51.0,30.03,ESE,109,0.0,0.0,90,0.00,,,0.00,0.000000,,2013-06-19 03:01:00,
2013-06-18 23:11:00,54.0,51.0,30.03,ESE,109,0.0,0.0,90,0.00,,,0.00,0.000000,,2013-06-19 03:11:00,
2013-06-18 23:22:00,54.0,51.0,30.03,ESE,110,0.0,0.0,91,0.00,,,0.00,0.000000,,2013-06-19 03:22:00,
2013-06-18 23:33:00,54.0,52.0,30.03,ESE,110,0.0,0.0,92,0.00,,,0.00,0.000000,,2013-06-19 03:33:00,
2013-06-18 23:43:00,54.0,52.0,30.02,ESE,111,0.0,0.0,92,0.00,,,0.00,0.000000,,2013-06-19 03:43:00,
2013-06-18 23:51:00,54.0,52.0,30.02,ESE,113,0.0,1.0,93,0.00,,,0.00,0.000000,,2013-06-19 03:51:00,
2013-06-18 23:52:00,54.0,52.0,30.02,ESE,111,0.0,0.0,92,0.00,,,0.00,0.000000,,2013-06-19 03:52:00,